sensor_id;sensor_type;location;lat;lon;timestamp;pressure;altitude;pressure_sealevel;temperature;humidity
22389;BME280;11362;48.102;11.620;2023-01-28T00:00:58;95468.09;;;23.01;31.53
22389;BME280;11362;48.102;11.620;2023-01-28T00:03:23;95471.66;;;23.01;31.37
22389;BME280;11362;48.102;11.620;2023-01-28T00:05:48;95467.28;;;23.04;31.57
22389;BME280;11362;48.102;11.620;2023-01-28T00:08:14;95473.22;;;23.06;31.91
22389;BME280;11362;48.102;11.620;2023-01-28T00:10:40;95469.25;;;23.07;32.41
22389;BME280;11362;48.102;11.620;2023-01-28T00:13:06;95471.22;;;23.06;32.47
22389;BME280;11362;48.102;11.620;2023-01-28T00:15:32;95469.25;;;23.07;32.35
22389;BME280;11362;48.102;11.620;2023-01-28T00:17:57;95460.94;;;23.07;32.53
22389;BME280;11362;48.102;11.620;2023-01-28T00:20:22;95468.41;;;23.10;32.69
22389;BME280;11362;48.102;11.620;2023-01-28T00:22:48;95474.31;;;23.12;33.22
22389;BME280;11362;48.102;11.620;2023-01-28T00:25:14;95468.78;;;23.12;33.21
22389;BME280;11362;48.102;11.620;2023-01-28T00:27:39;95472.00;;;23.10;33.14
22389;BME280;11362;48.102;11.620;2023-01-28T00:30:05;95473.56;;;23.11;33.21
22389;BME280;11362;48.102;11.620;2023-01-28T00:32:30;95474.31;;;23.12;33.26
22389;BME280;11362;48.102;11.620;2023-01-28T00:34:55;95464.84;;;23.13;33.18
22389;BME280;11362;48.102;11.620;2023-01-28T00:37:21;95469.59;;;23.12;33.17
22389;BME280;11362;48.102;11.620;2023-01-28T00:39:46;95467.63;;;23.13;33.63
22389;BME280;11362;48.102;11.620;2023-01-28T00:42:11;95466.41;;;23.14;33.76
22389;BME280;11362;48.102;11.620;2023-01-28T00:44:37;95477.09;;;23.15;33.25
22389;BME280;11362;48.102;11.620;2023-01-28T00:47:02;95491.75;;;23.12;32.70
22389;BME280;11362;48.102;11.620;2023-01-28T00:49:27;95494.28;;;22.28;27.03
22389;BME280;11362;48.102;11.620;2023-01-28T00:51:52;95488.97;;;21.65;26.21
22389;BME280;11362;48.102;11.620;2023-01-28T00:54:18;95448.28;;;21.79;26.26
22389;BME280;11362;48.102;11.620;2023-01-28T00:56:43;95436.28;;;22.10;27.14
22389;BME280;11362;48.102;11.620;2023-01-28T00:59:08;95432.22;;;22.25;27.53
22389;BME280;11362;48.102;11.620;2023-01-28T01:01:33;95462.97;;;22.38;27.79
22389;BME280;11362;48.102;11.620;2023-01-28T01:03:59;95464.53;;;22.46;28.01
22389;BME280;11362;48.102;11.620;2023-01-28T01:06:24;95467.28;;;22.53;28.40
22389;BME280;11362;48.102;11.620;2023-01-28T01:08:50;95470.00;;;22.56;28.68
22389;BME280;11362;48.102;11.620;2023-01-28T01:11:15;95469.22;;;22.59;28.89
22389;BME280;11362;48.102;11.620;2023-01-28T01:13:41;95471.56;;;22.61;29.20
22389;BME280;11362;48.102;11.620;2023-01-28T01:16:14;95475.50;;;22.63;29.12
22389;BME280;11362;48.102;11.620;2023-01-28T01:18:39;95472.34;;;22.65;29.32
22389;BME280;11362;48.102;11.620;2023-01-28T01:21:10;95474.31;;;22.64;29.17
22389;BME280;11362;48.102;11.620;2023-01-28T01:23:36;95473.09;;;22.65;29.40
22389;BME280;11362;48.102;11.620;2023-01-28T01:26:03;95473.09;;;22.65;29.39
22389;BME280;11362;48.102;11.620;2023-01-28T01:28:28;95470.75;;;22.67;29.56
22389;BME280;11362;48.102;11.620;2023-01-28T01:31:05;95471.50;;;22.68;29.44
22389;BME280;11362;48.102;11.620;2023-01-28T01:33:31;95475.09;;;22.68;29.36
22389;BME280;11362;48.102;11.620;2023-01-28T01:35:57;95473.09;;;22.69;29.44
22389;BME280;11362;48.102;11.620;2023-01-28T01:38:24;95474.28;;;22.68;29.45
22389;BME280;11362;48.102;11.620;2023-01-28T01:40:49;95481.38;;;22.72;29.37
22389;BME280;11362;48.102;11.620;2023-01-28T01:43:20;95483.75;;;22.74;29.53
22389;BME280;11362;48.102;11.620;2023-01-28T01:45:49;95485.75;;;22.73;29.55
22389;BME280;11362;48.102;11.620;2023-01-28T01:48:28;95488.06;;;22.75;29.63
22389;BME280;11362;48.102;11.620;2023-01-28T01:51:01;95482.53;;;22.75;29.60
22389;BME280;11362;48.102;11.620;2023-01-28T01:53:29;95491.66;;;22.75;29.74
22389;BME280;11362;48.102;11.620;2023-01-28T01:55:58;95494.41;;;22.75;30.08
22389;BME280;11362;48.102;11.620;2023-01-28T01:58:29;95489.66;;;22.76;30.23
22389;BME280;11362;48.102;11.620;2023-01-28T02:00:55;95488.88;;;22.75;29.92
22389;BME280;11362;48.102;11.620;2023-01-28T02:03:27;95494.78;;;22.77;30.15
22389;BME280;11362;48.102;11.620;2023-01-28T02:05:53;95492.81;;;22.78;30.44
22389;BME280;11362;48.102;11.620;2023-01-28T02:08:19;95499.94;;;22.79;30.23
22389;BME280;11362;48.102;11.620;2023-01-28T02:10:46;95500.69;;;22.79;30.37
22389;BME280;11362;48.102;11.620;2023-01-28T02:13:14;95492.41;;;22.79;30.43
22389;BME280;11362;48.102;11.620;2023-01-28T02:15:42;95497.53;;;22.81;30.13
22389;BME280;11362;48.102;11.620;2023-01-28T02:18:08;95495.56;;;22.81;30.41
22389;BME280;11362;48.102;11.620;2023-01-28T02:21:02;95496.78;;;22.80;30.30
22389;BME280;11362;48.102;11.620;2023-01-28T02:27:13;95509.00;;;22.83;30.36
22389;BME280;11362;48.102;11.620;2023-01-28T02:29:48;95503.44;;;22.83;30.08
22389;BME280;11362;48.102;11.620;2023-01-28T02:32:21;95506.22;;;22.83;30.47
22389;BME280;11362;48.102;11.620;2023-01-28T02:35:23;95490.41;;;22.83;30.26
22389;BME280;11362;48.102;11.620;2023-01-28T02:37:55;95497.91;;;22.83;30.05
22389;BME280;11362;48.102;11.620;2023-01-28T02:40:27;95503.06;;;22.84;30.26
22389;BME280;11362;48.102;11.620;2023-01-28T02:42:53;95503.06;;;22.84;30.04
22389;BME280;11362;48.102;11.620;2023-01-28T02:45:27;95506.63;;;22.85;30.12
22389;BME280;11362;48.102;11.620;2023-01-28T02:47:55;95510.16;;;22.85;30.04
22389;BME280;11362;48.102;11.620;2023-01-28T02:50:20;95511.72;;;22.86;29.96
22389;BME280;11362;48.102;11.620;2023-01-28T02:53:12;95508.19;;;22.86;30.18
22389;BME280;11362;48.102;11.620;2023-01-28T02:55:46;95507.75;;;22.87;30.40
22389;BME280;11362;48.102;11.620;2023-01-28T03:01:11;95514.91;;;22.88;29.96
22389;BME280;11362;48.102;11.620;2023-01-28T03:03:58;95502.22;;;22.87;30.15
22389;BME280;11362;48.102;11.620;2023-01-28T03:06:31;95509.75;;;22.87;29.82
22389;BME280;11362;48.102;11.620;2023-01-28T03:09:02;95508.94;;;22.90;30.13
22389;BME280;11362;48.102;11.620;2023-01-28T03:11:31;95507.38;;;22.89;29.94
22389;BME280;11362;48.102;11.620;2023-01-28T03:13:57;95512.91;;;22.89;29.97
22389;BME280;11362;48.102;11.620;2023-01-28T03:16:23;95515.69;;;22.89;30.04
22389;BME280;11362;48.102;11.620;2023-01-28T03:18:50;95516.47;;;22.89;30.04
22389;BME280;11362;48.102;11.620;2023-01-28T03:21:24;95518.81;;;22.91;30.13
22389;BME280;11362;48.102;11.620;2023-01-28T03:23:56;95521.22;;;22.89;30.00
22389;BME280;11362;48.102;11.620;2023-01-28T03:26:23;95522.78;;;22.90;29.96
22389;BME280;11362;48.102;11.620;2023-01-28T03:28:53;95518.81;;;22.91;29.93
22389;BME280;11362;48.102;11.620;2023-01-28T03:31:19;95517.25;;;22.90;29.92
22389;BME280;11362;48.102;11.620;2023-01-28T03:33:46;95523.59;;;22.90;30.04
22389;BME280;11362;48.102;11.620;2023-01-28T03:36:12;95524.34;;;22.91;30.11
22389;BME280;11362;48.102;11.620;2023-01-28T03:38:39;95525.97;;;22.92;29.76
22389;BME280;11362;48.102;11.620;2023-01-28T03:41:05;95525.16;;;22.91;30.11
22389;BME280;11362;48.102;11.620;2023-01-28T03:43:31;95530.69;;;22.91;30.28
22389;BME280;11362;48.102;11.620;2023-01-28T03:45:56;95527.94;;;22.91;30.17
22389;BME280;11362;48.102;11.620;2023-01-28T03:48:24;95530.31;;;22.93;30.31
22389;BME280;11362;48.102;11.620;2023-01-28T03:50:50;95522.41;;;22.91;29.90
22389;BME280;11362;48.102;11.620;2023-01-28T03:53:17;95529.50;;;22.92;29.93
22389;BME280;11362;48.102;11.620;2023-01-28T03:55:44;95527.53;;;22.93;29.92
22389;BME280;11362;48.102;11.620;2023-01-28T03:58:11;95531.50;;;22.92;29.88
22389;BME280;11362;48.102;11.620;2023-01-28T04:00:37;95525.97;;;22.92;30.00
22389;BME280;11362;48.102;11.620;2023-01-28T04:03:03;95540.59;;;22.92;29.91
22389;BME280;11362;48.102;11.620;2023-01-28T04:05:29;95537.03;;;22.92;30.17
22389;BME280;11362;48.102;11.620;2023-01-28T04:07:55;95525.16;;;22.91;29.97
22389;BME280;11362;48.102;11.620;2023-01-28T04:10:21;95526.72;;;22.92;29.61
22389;BME280;11362;48.102;11.620;2023-01-28T04:12:46;95534.66;;;22.94;29.83
22389;BME280;11362;48.102;11.620;2023-01-28T04:15:11;95542.16;;;22.93;29.93
22389;BME280;11362;48.102;11.620;2023-01-28T04:17:37;95544.53;;;22.95;29.83
22389;BME280;11362;48.102;11.620;2023-01-28T04:20:02;95540.56;;;22.96;29.70
22389;BME280;11362;48.102;11.620;2023-01-28T04:22:27;95543.31;;;22.96;29.83
22389;BME280;11362;48.102;11.620;2023-01-28T04:24:53;95548.88;;;22.96;29.74
22389;BME280;11362;48.102;11.620;2023-01-28T04:27:18;95548.88;;;22.96;29.90
22389;BME280;11362;48.102;11.620;2023-01-28T04:29:43;95546.09;;;22.96;29.79
22389;BME280;11362;48.102;11.620;2023-01-28T04:32:09;95547.66;;;22.97;29.52
22389;BME280;11362;48.102;11.620;2023-01-28T04:34:34;95554.78;;;22.98;29.75
22389;BME280;11362;48.102;11.620;2023-01-28T04:36:59;95560.31;;;22.98;29.59
22389;BME280;11362;48.102;11.620;2023-01-28T04:39:24;95563.91;;;22.98;30.08
22389;BME280;11362;48.102;11.620;2023-01-28T04:41:50;95553.63;;;22.99;29.69
22389;BME280;11362;48.102;11.620;2023-01-28T04:44:15;95559.16;;;22.99;29.73
22389;BME280;11362;48.102;11.620;2023-01-28T04:46:40;95561.13;;;22.98;29.75
22389;BME280;11362;48.102;11.620;2023-01-28T04:49:05;95565.47;;;22.99;29.68
22389;BME280;11362;48.102;11.620;2023-01-28T04:51:31;95569.81;;;23.00;29.80
22389;BME280;11362;48.102;11.620;2023-01-28T04:53:56;95568.25;;;22.99;29.84
22389;BME280;11362;48.102;11.620;2023-01-28T04:56:21;95572.59;;;23.00;29.88
22389;BME280;11362;48.102;11.620;2023-01-28T04:58:47;95571.81;;;23.00;29.69
22389;BME280;11362;48.102;11.620;2023-01-28T05:01:12;95566.28;;;23.00;29.83
22389;BME280;11362;48.102;11.620;2023-01-28T05:03:37;95574.59;;;23.00;29.72
22389;BME280;11362;48.102;11.620;2023-01-28T05:06:03;95579.31;;;22.99;29.97
22389;BME280;11362;48.102;11.620;2023-01-28T05:08:28;95576.56;;;22.99;29.91
22389;BME280;11362;48.102;11.620;2023-01-28T05:10:53;95574.19;;;22.98;29.74
22389;BME280;11362;48.102;11.620;2023-01-28T05:13:19;95583.66;;;23.00;29.60
22389;BME280;11362;48.102;11.620;2023-01-28T05:15:50;95577.34;;;23.00;29.22
22389;BME280;11362;48.102;11.620;2023-01-28T05:18:15;95586.06;;;22.98;29.69
22389;BME280;11362;48.102;11.620;2023-01-28T05:20:40;95585.66;;;23.00;29.40
22389;BME280;11362;48.102;11.620;2023-01-28T05:23:06;95581.31;;;22.99;29.41
22389;BME280;11362;48.102;11.620;2023-01-28T05:25:31;95579.72;;;22.98;29.40
22389;BME280;11362;48.102;11.620;2023-01-28T05:27:56;95585.66;;;23.00;29.54
22389;BME280;11362;48.102;11.620;2023-01-28T05:30:21;95581.31;;;22.99;29.61
22389;BME280;11362;48.102;11.620;2023-01-28T05:32:47;95588.81;;;22.98;29.63
22389;BME280;11362;48.102;11.620;2023-01-28T05:35:13;95593.97;;;23.00;29.46
22389;BME280;11362;48.102;11.620;2023-01-28T05:37:38;95595.16;;;22.99;29.79
22389;BME280;11362;48.102;11.620;2023-01-28T05:40:04;95603.84;;;23.01;29.69
22389;BME280;11362;48.102;11.620;2023-01-28T05:42:29;95601.47;;;22.99;29.39
22389;BME280;11362;48.102;11.620;2023-01-28T05:44:54;95600.72;;;22.99;29.52
22389;BME280;11362;48.102;11.620;2023-01-28T05:47:20;95604.25;;;22.99;29.66
22389;BME280;11362;48.102;11.620;2023-01-28T05:49:45;95612.16;;;23.01;29.42
22389;BME280;11362;48.102;11.620;2023-01-28T05:52:11;95614.13;;;23.00;29.23
22389;BME280;11362;48.102;11.620;2023-01-28T05:54:36;95609.41;;;23.01;29.34
22389;BME280;11362;48.102;11.620;2023-01-28T05:57:02;95610.97;;;23.02;29.15
22389;BME280;11362;48.102;11.620;2023-01-28T05:59:27;95610.59;;;23.00;29.34
22389;BME280;11362;48.102;11.620;2023-01-28T06:01:52;95616.13;;;23.00;29.41
22389;BME280;11362;48.102;11.620;2023-01-28T06:04:17;95618.91;;;23.00;29.30
22389;BME280;11362;48.102;11.620;2023-01-28T06:06:43;95620.09;;;22.99;29.26
22389;BME280;11362;48.102;11.620;2023-01-28T06:09:09;95615.72;;;22.98;29.25
22389;BME280;11362;48.102;11.620;2023-01-28T06:11:34;95620.88;;;22.99;29.42
22389;BME280;11362;48.102;11.620;2023-01-28T06:13:59;95626.41;;;22.99;29.71
22389;BME280;11362;48.102;11.620;2023-01-28T06:16:24;95619.31;;;22.98;29.74
22389;BME280;11362;48.102;11.620;2023-01-28T06:18:50;95623.25;;;23.01;29.50
22389;BME280;11362;48.102;11.620;2023-01-28T06:21:15;95623.66;;;22.99;29.47
22389;BME280;11362;48.102;11.620;2023-01-28T06:23:40;95625.66;;;22.99;29.28
22389;BME280;11362;48.102;11.620;2023-01-28T06:26:06;95630.38;;;22.98;29.33
22389;BME280;11362;48.102;11.620;2023-01-28T06:28:31;95632.75;;;23.00;29.54
22389;BME280;11362;48.102;11.620;2023-01-28T06:30:56;95644.25;;;22.98;29.68
22389;BME280;11362;48.102;11.620;2023-01-28T06:33:22;95636.72;;;22.99;29.83
22389;BME280;11362;48.102;11.620;2023-01-28T06:35:47;95616.91;;;23.00;30.20
22389;BME280;11362;48.102;11.620;2023-01-28T06:38:12;95609.41;;;23.01;30.03
22389;BME280;11362;48.102;11.620;2023-01-28T06:40:38;95620.47;;;23.04;29.83
22389;BME280;11362;48.102;11.620;2023-01-28T06:43:04;95645.38;;;23.08;30.04
22389;BME280;11362;48.102;11.620;2023-01-28T06:45:30;95625.59;;;23.06;30.27
22389;BME280;11362;48.102;11.620;2023-01-28T06:47:55;95624.41;;;23.07;30.00
22389;BME280;11362;48.102;11.620;2023-01-28T06:50:20;95647.34;;;23.07;30.45
22389;BME280;11362;48.102;11.620;2023-01-28T06:52:46;95653.31;;;23.06;30.58
22389;BME280;11362;48.102;11.620;2023-01-28T06:55:11;95657.25;;;23.05;30.57
22389;BME280;11362;48.102;11.620;2023-01-28T06:57:37;95654.47;;;23.05;30.69
22389;BME280;11362;48.102;11.620;2023-01-28T07:00:04;95653.34;;;23.02;30.50
22389;BME280;11362;48.102;11.620;2023-01-28T07:02:30;95651.34;;;23.03;30.50
22389;BME280;11362;48.102;11.620;2023-01-28T07:04:55;95658.84;;;23.06;30.12
22389;BME280;11362;48.102;11.620;2023-01-28T07:07:20;95658.84;;;23.06;30.48
22389;BME280;11362;48.102;11.620;2023-01-28T07:09:46;95662.00;;;23.08;30.37
22389;BME280;11362;48.102;11.620;2023-01-28T07:12:11;95664.78;;;23.08;30.76
22389;BME280;11362;48.102;11.620;2023-01-28T07:14:36;95662.38;;;23.10;30.67
22389;BME280;11362;48.102;11.620;2023-01-28T07:17:01;95658.03;;;23.09;31.06
22389;BME280;11362;48.102;11.620;2023-01-28T07:19:27;95664.38;;;23.09;30.73
22389;BME280;11362;48.102;11.620;2023-01-28T07:21:52;95667.91;;;23.10;30.74
22389;BME280;11362;48.102;11.620;2023-01-28T07:24:17;95661.19;;;23.07;30.92
22389;BME280;11362;48.102;11.620;2023-01-28T07:26:43;95675.03;;;23.11;31.17
22389;BME280;11362;48.102;11.620;2023-01-28T07:29:08;95680.19;;;23.12;31.07
22389;BME280;11362;48.102;11.620;2023-01-28T07:31:33;95678.97;;;23.13;31.09
22389;BME280;11362;48.102;11.620;2023-01-28T07:33:59;95679.38;;;23.12;31.24
22389;BME280;11362;48.102;11.620;2023-01-28T07:36:24;95681.75;;;23.13;31.06
22389;BME280;11362;48.102;11.620;2023-01-28T07:38:49;95693.66;;;23.14;30.87
22389;BME280;11362;48.102;11.620;2023-01-28T07:41:14;95698.00;;;23.15;31.21
22389;BME280;11362;48.102;11.620;2023-01-28T07:43:40;95692.09;;;23.16;31.52
22389;BME280;11362;48.102;11.620;2023-01-28T07:46:05;95696.81;;;23.16;31.55
22389;BME280;11362;48.102;11.620;2023-01-28T07:48:30;95698.41;;;23.17;31.31
22389;BME280;11362;48.102;11.620;2023-01-28T07:50:58;95701.56;;;23.15;31.65
22389;BME280;11362;48.102;11.620;2023-01-28T07:53:24;95706.31;;;23.15;31.45
22389;BME280;11362;48.102;11.620;2023-01-28T07:55:49;95703.53;;;23.15;31.62
22389;BME280;11362;48.102;11.620;2023-01-28T07:58:15;95710.69;;;23.16;31.40
22389;BME280;11362;48.102;11.620;2023-01-28T08:00:40;95710.28;;;23.17;31.44
22389;BME280;11362;48.102;11.620;2023-01-28T08:03:10;95719.00;;;23.16;31.31
22389;BME280;11362;48.102;11.620;2023-01-28T08:05:39;95717.38;;;23.15;31.57
22389;BME280;11362;48.102;11.620;2023-01-28T08:08:05;95713.44;;;23.16;31.51
22389;BME280;11362;48.102;11.620;2023-01-28T08:10:30;95710.69;;;23.16;31.30
22389;BME280;11362;48.102;11.620;2023-01-28T08:12:57;95711.06;;;23.18;31.77
22389;BME280;11362;48.102;11.620;2023-01-28T08:15:22;95709.47;;;23.17;31.81
22389;BME280;11362;48.102;11.620;2023-01-28T08:17:48;95713.44;;;23.16;31.53
22389;BME280;11362;48.102;11.620;2023-01-28T08:20:13;95709.47;;;23.17;31.46
22389;BME280;11362;48.102;11.620;2023-01-28T08:22:39;95720.56;;;23.17;31.67
22389;BME280;11362;48.102;11.620;2023-01-28T08:25:04;95707.91;;;23.16;31.74
22389;BME280;11362;48.102;11.620;2023-01-28T08:27:29;95707.09;;;23.15;31.43
22389;BME280;11362;48.102;11.620;2023-01-28T08:29:55;95714.63;;;23.15;31.39
22389;BME280;11362;48.102;11.620;2023-01-28T08:32:20;95745.09;;;23.15;31.31
22389;BME280;11362;48.102;11.620;2023-01-28T08:34:45;95741.16;;;23.16;31.42
22389;BME280;11362;48.102;11.620;2023-01-28T08:37:11;95744.28;;;23.14;31.63
22389;BME280;11362;48.102;11.620;2023-01-28T08:39:36;95766.88;;;23.13;31.78
22389;BME280;11362;48.102;11.620;2023-01-28T08:42:01;95740.75;;;23.14;31.71
22389;BME280;11362;48.102;11.620;2023-01-28T08:44:27;95739.19;;;23.13;31.92
22389;BME280;11362;48.102;11.620;2023-01-28T08:46:52;95737.56;;;23.12;31.85
22389;BME280;11362;48.102;11.620;2023-01-28T08:49:17;95741.94;;;23.13;31.74
22389;BME280;11362;48.102;11.620;2023-01-28T08:51:43;95753.81;;;23.13;31.86
22389;BME280;11362;48.102;11.620;2023-01-28T08:54:08;95748.66;;;23.12;31.84
22389;BME280;11362;48.102;11.620;2023-01-28T08:56:33;95744.31;;;23.11;31.86
22389;BME280;11362;48.102;11.620;2023-01-28T08:58:59;95751.44;;;23.12;31.70
22389;BME280;11362;48.102;11.620;2023-01-28T09:01:24;95753.81;;;23.10;31.96
22389;BME280;11362;48.102;11.620;2023-01-28T09:03:49;95760.94;;;23.11;31.75
22389;BME280;11362;48.102;11.620;2023-01-28T09:06:14;95761.75;;;23.11;31.86
22389;BME280;11362;48.102;11.620;2023-01-28T09:08:40;95781.53;;;23.10;31.92
22389;BME280;11362;48.102;11.620;2023-01-28T09:11:05;95758.59;;;23.09;31.91
22389;BME280;11362;48.102;11.620;2023-01-28T09:13:30;95759.38;;;23.10;31.65
22389;BME280;11362;48.102;11.620;2023-01-28T09:15:56;95732.84;;;23.09;31.28
22389;BME280;11362;48.102;11.620;2023-01-28T09:18:21;95732.84;;;23.09;31.04
22389;BME280;11362;48.102;11.620;2023-01-28T09:20:46;95739.19;;;23.09;31.49
22389;BME280;11362;48.102;11.620;2023-01-28T09:23:12;95769.69;;;23.09;31.35
22389;BME280;11362;48.102;11.620;2023-01-28T09:25:37;95762.13;;;23.10;31.73
22389;BME280;11362;48.102;11.620;2023-01-28T09:28:03;95772.03;;;23.11;31.88
22389;BME280;11362;48.102;11.620;2023-01-28T09:30:28;95771.22;;;23.14;32.17
22389;BME280;11362;48.102;11.620;2023-01-28T09:32:55;95767.28;;;23.15;32.62
22389;BME280;11362;48.102;11.620;2023-01-28T09:35:21;95773.59;;;23.19;33.42
22389;BME280;11362;48.102;11.620;2023-01-28T09:37:47;95767.28;;;23.22;34.23
22389;BME280;11362;48.102;11.620;2023-01-28T09:40:34;95765.69;;;23.24;34.04
22389;BME280;11362;48.102;11.620;2023-01-28T09:45:41;95766.06;;;23.23;33.11
22389;BME280;11362;48.102;11.620;2023-01-28T09:48:18;95764.06;;;23.23;33.30
22389;BME280;11362;48.102;11.620;2023-01-28T09:50:47;95755.34;;;23.28;33.49
22389;BME280;11362;48.102;11.620;2023-01-28T09:53:22;95758.50;;;23.30;33.50
22389;BME280;11362;48.102;11.620;2023-01-28T09:55:54;95763.28;;;23.30;33.35
22389;BME280;11362;48.102;11.620;2023-01-28T09:58:20;95744.25;;;23.32;33.54
22389;BME280;11362;48.102;11.620;2023-01-28T10:06:05;95752.91;;;23.37;33.42
22389;BME280;11362;48.102;11.620;2023-01-28T10:08:59;95750.16;;;23.37;33.42
22389;BME280;11362;48.102;11.620;2023-01-28T10:11:42;95754.53;;;23.38;33.74
22389;BME280;11362;48.102;11.620;2023-01-28T10:16:51;95735.13;;;23.35;33.35
22389;BME280;11362;48.102;11.620;2023-01-28T10:19:23;95738.28;;;23.37;33.32
22389;BME280;11362;48.102;11.620;2023-01-28T10:21:56;95756.50;;;23.38;33.22
22389;BME280;11362;48.102;11.620;2023-01-28T10:24:33;95749.75;;;23.38;33.25
22389;BME280;11362;48.102;11.620;2023-01-28T10:26:59;95755.28;;;23.42;33.34
22389;BME280;11362;48.102;11.620;2023-01-28T10:29:28;95746.19;;;23.42;33.36
22389;BME280;11362;48.102;11.620;2023-01-28T10:32:03;95752.91;;;23.40;33.35
22389;BME280;11362;48.102;11.620;2023-01-28T10:34:29;95754.53;;;23.38;33.49
22389;BME280;11362;48.102;11.620;2023-01-28T10:36:56;95741.84;;;23.33;33.55
22389;BME280;11362;48.102;11.620;2023-01-28T10:39:23;95747.41;;;23.33;33.73
22389;BME280;11362;48.102;11.620;2023-01-28T10:41:49;95750.16;;;23.33;33.74
22389;BME280;11362;48.102;11.620;2023-01-28T10:44:27;95751.78;;;23.35;33.42
22389;BME280;11362;48.102;11.620;2023-01-28T10:46:56;95752.16;;;23.33;33.54
22389;BME280;11362;48.102;11.620;2023-01-28T10:49:28;95745.81;;;23.33;33.69
22389;BME280;11362;48.102;11.620;2023-01-28T10:51:54;95745.81;;;23.33;33.56
22389;BME280;11362;48.102;11.620;2023-01-28T10:54:22;95745.81;;;23.33;33.83
22389;BME280;11362;48.102;11.620;2023-01-28T10:56:52;95745.03;;;23.32;33.55
22389;BME280;11362;48.102;11.620;2023-01-28T11:01:44;95740.28;;;23.33;34.14
22389;BME280;11362;48.102;11.620;2023-01-28T11:04:33;95746.63;;;23.33;34.84
22389;BME280;11362;48.102;11.620;2023-01-28T11:07:01;95731.19;;;23.32;34.53
22389;BME280;11362;48.102;11.620;2023-01-28T11:09:28;95734.75;;;23.29;33.94
22389;BME280;11362;48.102;11.620;2023-01-28T11:11:54;95728.81;;;23.27;33.41
22389;BME280;11362;48.102;11.620;2023-01-28T11:14:21;95773.19;;;23.27;33.14
22389;BME280;11362;48.102;11.620;2023-01-28T11:16:47;95770.03;;;23.25;32.94
22389;BME280;11362;48.102;11.620;2023-01-28T11:19:14;95765.69;;;23.24;33.23
22389;BME280;11362;48.102;11.620;2023-01-28T11:21:47;95762.91;;;23.24;33.03
22389;BME280;11362;48.102;11.620;2023-01-28T11:24:15;95765.03;;;22.64;26.58
22389;BME280;11362;48.102;11.620;2023-01-28T11:26:44;95759.94;;;21.86;26.42
22389;BME280;11362;48.102;11.620;2023-01-28T11:29:38;95746.13;;;22.21;27.10
22389;BME280;11362;48.102;11.620;2023-01-28T11:32:04;95746.13;;;22.42;27.49
22389;BME280;11362;48.102;11.620;2023-01-28T11:34:33;95748.44;;;22.54;28.00
22389;BME280;11362;48.102;11.620;2023-01-28T11:37:15;95748.03;;;22.66;28.33
22389;BME280;11362;48.102;11.620;2023-01-28T11:39:40;95740.53;;;22.70;28.58
22389;BME280;11362;48.102;11.620;2023-01-28T11:42:19;95741.66;;;22.76;28.77
22389;BME280;11362;48.102;11.620;2023-01-28T11:44:47;95750.78;;;22.80;29.05
22389;BME280;11362;48.102;11.620;2023-01-28T11:53:21;95749.16;;;22.86;29.53
22389;BME280;11362;48.102;11.620;2023-01-28T12:04:16;95747.56;;;22.92;29.86
22389;BME280;11362;48.102;11.620;2023-01-28T12:23:44;95744.38;;;22.97;30.20
22389;BME280;11362;48.102;11.620;2023-01-28T12:26:32;95738.81;;;22.97;30.28
22389;BME280;11362;48.102;11.620;2023-01-28T12:29:46;95745.94;;;22.98;30.22
22389;BME280;11362;48.102;11.620;2023-01-28T12:32:19;95737.25;;;22.99;30.37
22389;BME280;11362;48.102;11.620;2023-01-28T12:43:13;95749.22;;;22.72;27.55
22389;BME280;11362;48.102;11.620;2023-01-28T12:45:47;95740.91;;;22.75;27.91
22389;BME280;11362;48.102;11.620;2023-01-28T12:51:02;95717.13;;;22.85;28.48
22389;BME280;11362;48.102;11.620;2023-01-28T12:56:39;95721.84;;;22.88;28.82
22389;BME280;11362;48.102;11.620;2023-01-28T12:59:27;95773.66;;;22.91;28.96
22389;BME280;11362;48.102;11.620;2023-01-28T13:02:04;95749.16;;;22.93;28.98
22389;BME280;11362;48.102;11.620;2023-01-28T13:04:55;95752.69;;;22.93;29.42
22389;BME280;11362;48.102;11.620;2023-01-28T13:10:24;95745.56;;;22.96;29.71
22389;BME280;11362;48.102;11.620;2023-01-28T13:12:50;95745.94;;;22.98;30.00
22389;BME280;11362;48.102;11.620;2023-01-28T13:15:18;95740.41;;;22.98;29.58
22389;BME280;11362;48.102;11.620;2023-01-28T13:18:01;95740.81;;;23.00;30.35
22389;BME280;11362;48.102;11.620;2023-01-28T13:20:46;95738.78;;;23.04;30.15
22389;BME280;11362;48.102;11.620;2023-01-28T13:23:35;95742.38;;;23.04;30.38
22389;BME280;11362;48.102;11.620;2023-01-28T13:28:49;95750.28;;;23.06;30.48
22389;BME280;11362;48.102;11.620;2023-01-28T13:31:17;95755.41;;;23.07;30.76
22389;BME280;11362;48.102;11.620;2023-01-28T13:36:24;95728.09;;;23.09;30.77
22389;BME280;11362;48.102;11.620;2023-01-28T13:41:49;95740.34;;;23.08;31.03
22389;BME280;11362;48.102;11.620;2023-01-28T13:46:50;95741.56;;;23.04;30.45
22389;BME280;11362;48.102;11.620;2023-01-28T13:49:21;95772.47;;;23.06;30.62
22389;BME280;11362;48.102;11.620;2023-01-28T13:51:58;95768.09;;;23.05;30.71
22389;BME280;11362;48.102;11.620;2023-01-28T13:54:25;95765.72;;;23.07;30.98
22389;BME280;11362;48.102;11.620;2023-01-28T14:10:45;95787.84;;;23.24;31.91
22389;BME280;11362;48.102;11.620;2023-01-28T14:16:23;95787.06;;;23.24;31.76
22389;BME280;11362;48.102;11.620;2023-01-28T14:18:55;95789.44;;;23.25;31.71
22389;BME280;11362;48.102;11.620;2023-01-28T14:21:26;95791.03;;;23.23;32.05
22389;BME280;11362;48.102;11.620;2023-01-28T14:23:54;95795.00;;;23.22;31.76
22389;BME280;11362;48.102;11.620;2023-01-28T14:26:33;95793.78;;;23.23;31.92
22389;BME280;11362;48.102;11.620;2023-01-28T14:29:11;95766.47;;;23.21;31.75
22389;BME280;11362;48.102;11.620;2023-01-28T14:31:39;95770.41;;;23.24;31.87